createdAt,value
2023-04-19T00:01:23.211Z,8.57
2023-04-19T00:03:50.923Z,8.27
2023-04-19T00:06:18.514Z,8.30
2023-04-19T00:08:46.024Z,8.63
2023-04-19T00:11:13.391Z,8.50
2023-04-19T00:13:40.820Z,8.43
2023-04-19T00:16:09.764Z,9.20
2023-04-19T00:18:38.650Z,7.87
2023-04-19T00:21:06.530Z,8.37
2023-04-19T00:23:33.913Z,8.73
2023-04-19T00:26:03.402Z,8.47
2023-04-19T00:28:30.912Z,7.93
2023-04-19T00:30:58.381Z,8.60
2023-04-19T00:33:27.146Z,8.13
2023-04-19T00:35:57.425Z,8.90
2023-04-19T00:38:24.849Z,8.97
2023-04-19T00:40:52.248Z,8.33
2023-04-19T00:43:19.898Z,8.90
2023-04-19T00:45:47.413Z,8.33
2023-04-19T00:48:15.328Z,9.07
2023-04-19T00:50:44.799Z,8.20
2023-04-19T00:53:12.424Z,8.27
2023-04-19T00:55:40.181Z,8.17
2023-04-19T00:58:10.396Z,9.20
2023-04-19T01:00:38.054Z,9.20
2023-04-19T01:03:05.696Z,8.20
2023-04-19T01:05:33.139Z,8.67
2023-04-19T01:08:02.364Z,8.50
2023-04-19T01:10:30.189Z,8.53
2023-04-19T01:12:57.582Z,8.80
2023-04-19T01:15:24.955Z,8.17
2023-04-19T01:17:52.401Z,8.30
2023-04-19T01:20:19.808Z,8.90
2023-04-19T01:22:48.528Z,8.33
2023-04-19T01:25:15.994Z,8.43
2023-04-19T01:27:44.307Z,7.57
2023-04-19T01:30:12.181Z,7.73
2023-04-19T01:32:39.629Z,8.93
2023-04-19T01:35:07.519Z,7.93
2023-04-19T01:37:36.284Z,7.87
2023-04-19T01:40:06.200Z,8.50
2023-04-19T01:42:33.623Z,8.13
2023-04-19T01:45:01.631Z,7.97
2023-04-19T01:47:29.056Z,8.67
2023-04-19T01:49:56.493Z,7.80
2023-04-19T01:52:23.936Z,8.10
2023-04-19T01:54:51.322Z,7.93
2023-04-19T01:57:20.228Z,8.97
2023-04-19T01:59:48.244Z,8.67
2023-04-19T02:02:15.736Z,8.20
2023-04-19T02:04:44.082Z,7.63
2023-04-19T02:07:11.518Z,7.93
2023-04-19T02:09:38.939Z,7.90
2023-04-19T02:12:06.727Z,7.60
2023-04-19T02:14:36.089Z,7.90
2023-04-19T02:17:03.485Z,7.90
2023-04-19T02:19:30.895Z,8.87
2023-04-19T02:21:58.443Z,8.13
2023-04-19T02:24:25.976Z,8.53
2023-04-19T02:26:53.440Z,7.40
2023-04-19T02:29:20.926Z,8.20
2023-04-19T02:31:50.105Z,8.10
2023-04-19T02:34:18.570Z,8.07
2023-04-19T02:36:45.926Z,7.70
2023-04-19T02:39:13.286Z,8.30
2023-04-19T02:41:40.702Z,9.00
2023-04-19T02:44:08.398Z,8.43
2023-04-19T02:46:35.854Z,8.87
2023-04-19T02:49:04.716Z,7.37
2023-04-19T02:51:32.096Z,8.60
2023-04-19T02:53:59.538Z,8.13
2023-04-19T02:56:27.030Z,8.03
2023-04-19T02:58:55.362Z,7.87
2023-04-19T03:01:22.859Z,8.50
2023-04-19T03:03:50.698Z,8.00
2023-04-19T03:06:19.896Z,8.27
2023-04-19T03:08:47.288Z,8.20
2023-04-19T03:11:17.033Z,7.83
2023-04-19T03:13:44.527Z,8.10
2023-04-19T03:16:13.578Z,7.50
2023-04-19T03:18:42.388Z,8.00
2023-04-19T03:21:10.574Z,8.20
2023-04-19T03:23:51.080Z,7.63
2023-04-19T03:26:19.113Z,8.67
2023-04-19T03:28:49.124Z,8.90
2023-04-19T03:31:16.598Z,8.33
2023-04-19T03:33:45.277Z,8.17
2023-04-19T03:36:13.951Z,8.10
2023-04-19T03:38:44.367Z,8.03
2023-04-19T03:41:21.816Z,8.40
2023-04-19T03:43:54.075Z,8.30
2023-04-19T03:46:24.009Z,8.13
2023-04-19T03:48:52.226Z,8.53
2023-04-19T03:51:20.946Z,8.17
2023-04-19T03:53:48.349Z,8.00
2023-04-19T03:56:17.980Z,7.80
2023-04-19T03:58:46.942Z,8.07
2023-04-19T04:01:18.736Z,8.13
2023-04-19T04:03:46.584Z,8.77
2023-04-19T04:06:14.204Z,8.07
2023-04-19T04:08:41.813Z,8.47
2023-04-19T04:11:09.204Z,9.00
2023-04-19T04:13:37.316Z,8.63
2023-04-19T04:16:20.331Z,8.30
2023-04-19T04:18:48.798Z,9.30
2023-04-19T04:21:16.367Z,8.87
2023-04-19T04:23:49.708Z,8.33
2023-04-19T04:26:30.679Z,8.57
2023-04-19T04:29:08.606Z,7.87
2023-04-19T04:31:38.081Z,8.70
2023-04-19T04:34:06.372Z,8.50
2023-04-19T04:36:36.505Z,8.10
2023-04-19T04:39:04.125Z,8.80
2023-04-19T04:41:31.630Z,8.53
2023-04-19T04:44:12.235Z,8.37
2023-04-19T04:46:42.339Z,8.30
2023-04-19T04:49:12.651Z,8.17
2023-04-19T04:51:42.734Z,7.87
2023-04-19T04:54:10.643Z,8.50
2023-04-19T04:56:38.153Z,8.07
2023-04-19T04:59:05.735Z,7.73
2023-04-19T05:01:37.341Z,7.37
2023-04-19T05:04:06.591Z,7.87
2023-04-19T05:06:34.016Z,7.47
2023-04-19T05:09:01.412Z,8.10
2023-04-19T05:11:34.345Z,7.33
2023-04-19T05:14:01.832Z,7.30
2023-04-19T05:16:29.376Z,7.50
2023-04-19T05:18:56.954Z,7.17
2023-04-19T05:21:27.774Z,6.80
2023-04-19T05:23:55.297Z,7.30
2023-04-19T05:26:23.380Z,6.73
2023-04-19T05:28:51.795Z,7.10
2023-04-19T05:31:38.621Z,6.80
2023-04-19T05:34:12.343Z,7.03
2023-04-19T05:36:41.054Z,7.27
2023-04-19T05:39:09.488Z,7.40
2023-04-19T05:41:36.935Z,7.23
2023-04-19T05:44:04.427Z,6.80
2023-04-19T05:46:32.107Z,6.90
2023-04-19T05:48:59.904Z,6.30
2023-04-19T05:51:47.272Z,6.83
2023-04-19T05:54:35.933Z,6.17
2023-04-19T05:57:03.884Z,6.10
2023-04-19T05:59:31.320Z,6.47
2023-04-19T06:01:58.911Z,6.70
2023-04-19T06:04:26.404Z,6.83
2023-04-19T06:06:56.241Z,8.10
2023-04-19T06:09:23.908Z,7.07
2023-04-19T06:11:52.078Z,7.93
2023-04-19T06:14:19.908Z,7.33
2023-04-19T06:16:47.667Z,6.93
2023-04-19T06:19:15.170Z,7.00
2023-04-19T06:21:42.575Z,6.63
2023-04-19T06:24:11.571Z,6.77
2023-04-19T06:26:39.011Z,6.57
2023-04-19T06:29:06.516Z,6.37
2023-04-19T06:31:34.160Z,7.00
2023-04-19T06:34:01.686Z,6.87
2023-04-19T06:36:29.031Z,7.07
2023-04-19T06:38:56.426Z,7.17
2023-04-19T06:41:25.911Z,6.57
2023-04-19T06:43:53.271Z,7.07
2023-04-19T06:46:20.769Z,6.70
2023-04-19T06:48:48.195Z,7.37
2023-04-19T06:51:15.654Z,7.47
2023-04-19T06:53:44.594Z,6.20
2023-04-19T06:56:13.378Z,7.77
2023-04-19T06:58:42.119Z,6.57
2023-04-19T07:01:09.532Z,7.30
2023-04-19T07:03:37.058Z,6.37
2023-04-19T07:06:04.836Z,6.77
2023-04-19T07:08:46.393Z,6.80
2023-04-19T07:11:16.479Z,7.27
2023-04-19T07:13:45.211Z,6.80
2023-04-19T07:16:13.874Z,6.87
2023-04-19T07:18:41.389Z,7.17
2023-04-19T07:21:08.740Z,6.77
2023-04-19T07:23:36.196Z,6.73
2023-04-19T07:26:03.639Z,6.70
2023-04-19T07:28:30.997Z,7.47
2023-04-19T07:31:00.862Z,18.90
2023-04-19T07:33:28.794Z,14.13
2023-04-19T07:35:56.617Z,11.07
2023-04-19T07:38:24.686Z,12.03
2023-04-19T07:40:52.091Z,17.53
2023-04-19T07:43:19.487Z,8.03
2023-04-19T07:45:46.843Z,7.00
2023-04-19T07:48:15.609Z,7.10
2023-04-19T07:50:42.970Z,6.63
2023-04-19T07:53:10.594Z,7.90
2023-04-19T07:55:37.986Z,7.33
2023-04-19T07:58:05.732Z,7.13
2023-04-19T08:00:34.764Z,7.23
2023-04-19T08:03:02.455Z,7.30
2023-04-19T08:05:32.118Z,6.60
2023-04-19T08:07:59.526Z,7.50
2023-04-19T08:10:28.780Z,7.03
2023-04-19T08:13:04.299Z,7.30
2023-04-19T08:18:04.929Z,7.80
2023-04-19T08:20:33.898Z,7.30
2023-04-19T08:23:10.490Z,6.47
2023-04-19T08:25:45.931Z,6.97
2023-04-19T08:28:13.473Z,6.40
2023-04-19T08:30:41.316Z,7.20
2023-04-19T08:33:08.759Z,7.03
2023-04-19T08:35:38.734Z,7.07
2023-04-19T08:38:06.248Z,6.80
2023-04-19T08:40:33.665Z,6.60
2023-04-19T08:43:05.870Z,6.93
2023-04-19T08:45:33.732Z,7.10
2023-04-19T08:48:02.827Z,6.20
2023-04-19T08:50:35.790Z,7.03
2023-04-19T08:55:50.971Z,6.43
2023-04-19T08:58:45.840Z,7.57
2023-04-19T09:01:31.125Z,6.87
2023-04-19T09:04:17.175Z,7.03
2023-04-19T09:06:49.257Z,7.67
2023-04-19T09:11:49.264Z,6.57
2023-04-19T09:14:17.379Z,6.90
2023-04-19T09:16:44.941Z,6.53
2023-04-19T09:19:23.393Z,7.17
2023-04-19T09:21:54.175Z,6.40
2023-04-19T09:25:02.617Z,6.30
2023-04-19T09:27:26.898Z,7.30
2023-04-19T09:29:54.698Z,7.40
2023-04-19T09:32:22.573Z,6.70
2023-04-19T09:34:54.009Z,6.80
2023-04-19T09:37:39.123Z,7.30
2023-04-19T09:40:27.623Z,6.60
2023-04-19T09:45:30.038Z,6.37
2023-04-19T09:48:05.397Z,7.00
2023-04-19T09:50:34.178Z,6.23
2023-04-19T09:53:11.508Z,6.70
2023-04-19T09:55:52.696Z,6.60
2023-04-19T09:58:34.354Z,6.80
2023-04-19T10:01:15.141Z,6.83
2023-04-19T10:03:45.564Z,7.30
2023-04-19T10:06:27.818Z,6.70
2023-04-19T10:09:04.420Z,6.37
2023-04-19T10:11:38.624Z,7.07
2023-04-19T10:14:07.273Z,6.90
2023-04-19T10:16:35.488Z,7.00
2023-04-19T10:19:05.377Z,6.67
2023-04-19T10:21:33.223Z,6.70
2023-04-19T10:24:01.057Z,6.90
2023-04-19T10:26:28.498Z,7.13
2023-04-19T10:28:58.029Z,7.33
2023-04-19T10:31:26.420Z,7.50
2023-04-19T10:33:53.912Z,7.43
2023-04-19T10:36:22.162Z,7.77
2023-04-19T10:38:51.809Z,7.17
2023-04-19T10:41:19.637Z,7.20
2023-04-19T10:43:47.970Z,6.83
2023-04-19T10:46:17.855Z,7.13
2023-04-19T10:48:54.326Z,7.60
2023-04-19T10:51:22.641Z,6.90
2023-04-19T10:53:51.563Z,6.87
2023-04-19T10:56:19.764Z,7.27
2023-04-19T10:59:07.997Z,6.80
2023-04-19T11:01:39.609Z,7.00
2023-04-19T11:04:07.618Z,7.27
2023-04-19T11:06:35.919Z,7.00
2023-04-19T11:09:05.608Z,7.07
2023-04-19T11:11:34.415Z,7.10
2023-04-19T11:14:02.841Z,6.53
2023-04-19T11:16:44.493Z,7.20
2023-04-19T11:19:17.612Z,6.90
2023-04-19T11:21:45.983Z,7.37
2023-04-19T11:24:15.926Z,7.23
2023-04-19T11:26:43.626Z,7.87
2023-04-19T11:29:11.216Z,8.07
2023-04-19T11:31:39.015Z,7.80
2023-04-19T11:34:06.805Z,7.33
2023-04-19T11:36:36.890Z,7.13
2023-04-19T11:39:06.077Z,7.50
2023-04-19T11:41:38.563Z,7.50
2023-04-19T11:44:06.019Z,7.20
2023-04-19T11:46:33.445Z,7.70
2023-04-19T11:49:00.954Z,7.63
2023-04-19T11:51:28.347Z,7.00
2023-04-19T11:53:57.086Z,6.73
2023-04-19T11:56:24.710Z,7.70
2023-04-19T11:58:52.078Z,7.50
2023-04-19T12:01:20.390Z,7.03
2023-04-19T12:03:49.871Z,7.37
2023-04-19T12:06:19.074Z,7.83
2023-04-19T12:08:48.017Z,7.47
2023-04-19T12:11:18.838Z,7.30
2023-04-19T12:13:46.325Z,6.50
2023-04-19T12:16:14.139Z,6.87
2023-04-19T12:18:45.504Z,6.50
2023-04-19T12:21:13.656Z,6.20
2023-04-19T12:23:41.074Z,6.10
2023-04-19T12:26:08.474Z,6.93
2023-04-19T12:28:37.149Z,7.70
2023-04-19T12:31:04.633Z,7.73
2023-04-19T12:33:32.052Z,7.87
2023-04-19T12:35:59.501Z,7.60
2023-04-19T12:38:27.474Z,7.90
2023-04-19T12:40:54.906Z,6.83
2023-04-19T12:43:22.297Z,7.97
2023-04-19T12:45:51.063Z,7.93
2023-04-19T12:48:18.491Z,7.47
2023-04-19T12:50:45.918Z,7.90
2023-04-19T12:53:13.299Z,8.10
2023-04-19T12:55:40.715Z,8.13
2023-04-19T12:58:08.097Z,7.93
2023-04-19T13:00:35.450Z,8.40
2023-04-19T13:03:04.917Z,8.70
2023-04-19T13:05:32.445Z,8.53
2023-04-19T13:08:00.228Z,9.50
2023-04-19T13:10:28.475Z,8.70
2023-04-19T13:12:56.245Z,9.13
2023-04-19T13:15:23.647Z,9.03
2023-04-19T13:17:51.030Z,8.80
2023-04-19T13:20:20.594Z,9.33
2023-04-19T13:22:48.223Z,9.33
2023-04-19T13:25:15.651Z,9.33
2023-04-19T13:27:43.048Z,8.90
2023-04-19T13:30:10.952Z,8.83
2023-04-19T13:32:38.445Z,9.23
2023-04-19T13:35:06.272Z,8.23
2023-04-19T13:37:34.974Z,8.57
2023-04-19T13:40:17.418Z,8.47
2023-04-19T13:42:45.980Z,8.33
2023-04-19T13:45:13.770Z,8.83
2023-04-19T13:47:41.256Z,9.37
2023-04-19T13:50:09.067Z,6.53
2023-04-19T13:52:37.839Z,7.20
2023-04-19T13:55:05.742Z,8.33
2023-04-19T13:57:33.162Z,7.30
2023-04-19T14:00:00.609Z,8.30
2023-04-19T14:02:29.250Z,7.80
2023-04-19T14:04:58.901Z,8.23
2023-04-19T14:07:26.286Z,8.83
2023-04-19T14:09:54.998Z,8.33
2023-04-19T14:12:22.363Z,7.47
2023-04-19T14:14:49.750Z,8.20
2023-04-19T14:17:17.114Z,8.67
2023-04-19T14:19:44.488Z,8.37
2023-04-19T14:22:11.912Z,8.27
2023-04-19T14:24:39.265Z,8.07
2023-04-19T14:27:11.554Z,7.47
2023-04-19T14:29:39.327Z,7.27
2023-04-19T14:32:21.501Z,7.63
2023-04-19T14:34:52.224Z,8.20
2023-04-19T14:37:19.659Z,8.00
2023-04-19T14:39:47.064Z,6.77
2023-04-19T14:42:15.802Z,8.00
2023-04-19T14:44:43.737Z,7.07
2023-04-19T14:47:11.216Z,7.50
2023-04-19T14:49:38.586Z,7.20
2023-04-19T14:52:05.986Z,7.57
2023-04-19T14:54:33.430Z,7.40
2023-04-19T14:57:01.600Z,7.80
2023-04-19T14:59:30.514Z,7.07
2023-04-19T15:01:58.089Z,7.13
2023-04-19T15:04:25.805Z,9.43
2023-04-19T15:06:53.499Z,16.07
2023-04-19T15:09:20.926Z,8.27
2023-04-19T15:11:48.283Z,8.67
2023-04-19T15:14:15.695Z,8.23
2023-04-19T15:16:44.412Z,7.67
2023-04-19T15:19:11.739Z,7.03
2023-04-19T15:21:39.254Z,7.67
2023-04-19T15:24:07.882Z,8.50
2023-04-19T15:26:35.690Z,9.10
2023-04-19T15:29:03.170Z,10.27
2023-04-19T15:31:32.104Z,9.00
2023-04-19T15:34:03.682Z,7.47
2023-04-19T15:36:31.407Z,7.70
2023-04-19T15:38:58.936Z,7.53
2023-04-19T15:41:26.331Z,7.13
2023-04-19T15:43:53.826Z,7.17
2023-04-19T15:46:21.320Z,7.50
2023-04-19T15:48:49.170Z,7.43
2023-04-19T15:51:17.868Z,6.87
2023-04-19T15:53:45.269Z,7.37
2023-04-19T15:56:12.640Z,7.40
2023-04-19T15:58:40.066Z,7.17
2023-04-19T16:01:09.144Z,7.70
2023-04-19T16:03:36.823Z,12.50
2023-04-19T16:06:04.248Z,9.37
2023-04-19T16:08:33.037Z,7.30
2023-04-19T16:11:00.533Z,6.83
2023-04-19T16:13:29.591Z,7.50
2023-04-19T16:15:58.740Z,7.40
2023-04-19T16:18:26.264Z,7.87
2023-04-19T16:20:54.172Z,7.57
2023-04-19T16:23:21.613Z,8.60
2023-04-19T16:25:50.418Z,8.83
2023-04-19T16:28:18.770Z,7.83
2023-04-19T16:30:46.533Z,8.40
2023-04-19T16:33:15.210Z,8.50
2023-04-19T16:35:42.694Z,8.70
2023-04-19T16:38:10.103Z,8.70
2023-04-19T16:40:37.561Z,9.27
2023-04-19T16:43:06.456Z,8.17
2023-04-19T16:45:34.045Z,6.90
2023-04-19T16:48:01.621Z,6.83
2023-04-19T16:50:29.135Z,5.47
2023-04-19T16:52:56.553Z,5.67
2023-04-19T16:55:23.986Z,5.60
2023-04-19T16:57:53.563Z,6.40
2023-04-19T17:00:22.836Z,5.23
2023-04-19T17:02:50.421Z,6.10
2023-04-19T17:05:17.990Z,6.23
2023-04-19T17:07:45.430Z,6.53
2023-04-19T17:10:13.105Z,7.50
2023-04-19T17:12:41.010Z,7.77
2023-04-19T17:15:08.749Z,9.20
2023-04-19T17:17:37.505Z,9.37
2023-04-19T17:20:06.210Z,9.83
2023-04-19T17:22:33.679Z,8.90
2023-04-19T17:25:01.440Z,8.77
2023-04-19T17:27:28.775Z,9.70
2023-04-19T17:29:56.159Z,9.70
2023-04-19T17:32:23.730Z,8.23
2023-04-19T17:34:52.517Z,7.90
2023-04-19T17:37:19.932Z,7.63
2023-04-19T17:39:47.331Z,6.63
2023-04-19T17:42:14.733Z,6.67
2023-04-19T17:44:42.219Z,4.87
2023-04-19T17:47:09.587Z,4.57
2023-04-19T17:49:36.968Z,3.70
2023-04-19T17:52:05.701Z,3.70
2023-04-19T17:54:33.070Z,3.47
2023-04-19T17:57:02.340Z,2.80
2023-04-19T17:59:29.714Z,3.00
2023-04-19T18:01:57.689Z,2.80
2023-04-19T18:04:25.388Z,2.70
2023-04-19T18:06:52.853Z,3.17
2023-04-19T18:09:21.839Z,3.50
2023-04-19T18:11:49.283Z,4.33
2023-04-19T18:14:16.746Z,5.60
2023-04-19T18:16:44.243Z,3.80
2023-04-19T18:19:11.710Z,4.50
2023-04-19T18:21:39.108Z,5.00
2023-04-19T18:24:07.018Z,4.97
2023-04-19T18:26:40.026Z,4.17
2023-04-19T18:29:07.420Z,4.73
2023-04-19T18:31:34.897Z,5.10
2023-04-19T18:34:02.623Z,4.80
2023-04-19T18:36:30.020Z,5.57
2023-04-19T18:38:57.394Z,5.93
2023-04-19T18:41:25.034Z,6.57
2023-04-19T18:44:24.649Z,5.90
2023-04-19T18:46:41.888Z,6.47
2023-04-19T18:49:10.045Z,7.07
2023-04-19T18:51:37.568Z,6.10
2023-04-19T18:54:04.978Z,6.50
2023-04-19T18:57:10.828Z,6.40
2023-04-19T18:59:21.074Z,6.87
2023-04-19T19:01:49.331Z,6.37
2023-04-19T19:04:34.994Z,6.63
2023-04-19T19:07:18.149Z,7.10
2023-04-19T19:09:56.527Z,7.23
2023-04-19T19:12:24.378Z,7.33
2023-04-19T19:14:53.531Z,6.33
2023-04-19T19:17:21.123Z,6.47
2023-04-19T19:19:48.653Z,7.33
2023-04-19T19:22:26.345Z,6.87
2023-04-19T19:24:56.197Z,7.20
2023-04-19T19:27:23.814Z,6.73
2023-04-19T19:29:51.203Z,6.60
2023-04-19T19:32:19.936Z,6.80
2023-04-19T19:34:55.400Z,7.03
2023-04-19T19:37:23.534Z,6.97
2023-04-19T19:39:52.077Z,6.27
2023-04-19T19:42:19.678Z,6.30
2023-04-19T19:44:47.044Z,7.40
2023-04-19T19:47:16.870Z,6.77
2023-04-19T19:50:17.494Z,6.70
2023-04-19T19:52:33.767Z,6.63
2023-04-19T19:55:01.678Z,7.10
2023-04-19T19:58:20.547Z,6.63
2023-04-19T20:00:41.985Z,6.70
2023-04-19T20:03:06.902Z,6.60
2023-04-19T20:05:36.511Z,6.10
2023-04-19T20:08:08.519Z,7.00
2023-04-19T20:10:37.586Z,7.30
2023-04-19T20:13:06.164Z,6.50
2023-04-19T20:15:33.897Z,6.00
2023-04-19T20:18:02.060Z,5.93
2023-04-19T20:20:29.555Z,6.27
2023-04-19T20:22:58.282Z,6.50
2023-04-19T20:25:25.761Z,6.47
2023-04-19T20:27:54.096Z,6.43
2023-04-19T20:30:21.506Z,5.60
2023-04-19T20:32:50.191Z,6.17
2023-04-19T20:35:18.023Z,5.33
2023-04-19T20:37:45.473Z,5.27
2023-04-19T20:40:15.367Z,5.90
2023-04-19T20:42:43.292Z,5.40
2023-04-19T20:45:10.825Z,5.70
2023-04-19T20:47:38.852Z,5.67
2023-04-19T20:50:06.965Z,5.80
2023-04-19T20:52:34.696Z,5.20
2023-04-19T20:55:02.091Z,5.20
2023-04-19T20:57:30.833Z,5.30
2023-04-19T20:59:58.258Z,5.00
2023-04-19T21:02:25.807Z,4.90
2023-04-19T21:04:53.261Z,4.67
2023-04-19T21:07:20.655Z,4.60
2023-04-19T21:09:48.070Z,4.40
2023-04-19T21:12:15.498Z,4.37
2023-04-19T21:14:45.609Z,4.50
2023-04-19T21:17:14.594Z,4.20
2023-04-19T21:19:41.970Z,4.00
2023-04-19T21:22:09.394Z,3.87
2023-04-19T21:24:36.735Z,4.23
2023-04-19T21:27:04.228Z,4.27
2023-04-19T21:29:31.624Z,3.97
2023-04-19T21:32:00.489Z,3.43
2023-04-19T21:34:27.989Z,3.70
2023-04-19T21:36:55.423Z,4.00
2023-04-19T21:39:22.814Z,4.30
2023-04-19T21:41:50.262Z,3.80
2023-04-19T21:44:17.620Z,4.10
2023-04-19T21:46:44.988Z,3.70
2023-04-19T21:49:13.730Z,3.70
2023-04-19T21:51:41.076Z,4.30
2023-04-19T21:54:08.534Z,4.00
2023-04-19T21:56:35.900Z,3.73
2023-04-19T21:59:03.274Z,4.13
2023-04-19T22:01:30.639Z,3.67
2023-04-19T22:03:58.597Z,3.73
2023-04-19T22:06:27.564Z,3.53
2023-04-19T22:08:55.001Z,3.20
2023-04-19T22:11:22.498Z,3.50
2023-04-19T22:13:50.130Z,4.60
2023-04-19T22:16:17.641Z,3.37
2023-04-19T22:18:45.056Z,3.43
2023-04-19T22:21:12.449Z,3.20
2023-04-19T22:23:41.368Z,3.10
2023-04-19T22:26:08.769Z,3.10
2023-04-19T22:28:36.555Z,3.07
2023-04-19T22:31:04.097Z,3.20
2023-04-19T22:33:31.555Z,2.97
2023-04-19T22:35:58.909Z,3.00
2023-04-19T22:38:26.479Z,3.47
2023-04-19T22:40:55.380Z,3.57
2023-04-19T22:43:22.776Z,3.27
2023-04-19T22:45:50.364Z,3.70
2023-04-19T22:48:17.874Z,3.60
2023-04-19T22:50:45.511Z,3.50
2023-04-19T22:53:12.920Z,3.77
2023-04-19T22:55:40.462Z,3.30
2023-04-19T22:58:09.683Z,3.87
2023-04-19T23:00:37.710Z,4.10
2023-04-19T23:03:05.255Z,3.57
2023-04-19T23:05:33.469Z,3.50
2023-04-19T23:08:02.592Z,3.57
2023-04-19T23:10:30.745Z,3.60
2023-04-19T23:12:58.278Z,3.53
2023-04-19T23:15:29.296Z,3.80
2023-04-19T23:17:56.893Z,3.87
2023-04-19T23:20:24.374Z,3.23
2023-04-19T23:22:51.797Z,4.03
2023-04-19T23:25:19.203Z,4.17
2023-04-19T23:27:46.656Z,3.90
2023-04-19T23:30:14.172Z,3.27
2023-04-19T23:32:42.911Z,3.60
2023-04-19T23:35:10.547Z,3.60
2023-04-19T23:37:37.972Z,4.20
2023-04-19T23:40:05.936Z,4.20
2023-04-19T23:42:33.357Z,3.43
2023-04-19T23:45:00.762Z,3.50
2023-04-19T23:47:28.176Z,3.90
2023-04-19T23:49:56.966Z,4.10
2023-04-19T23:52:24.840Z,3.70
2023-04-19T23:54:52.192Z,3.80
2023-04-19T23:57:19.895Z,3.50
2023-04-19T23:59:47.346Z,3.90
